Time;durP1;ratioP1;P1;durP2;ratioP2;P2;SDS_P1;SDS_P2;PMS_P1;PMS_P2;Temp;Humidity;BMP_temperature;BMP_pressure;BME280_temperature;BME280_humidity;BME280_pressure;Samples;Min_cycle;Max_cycle;Signal;HPM_P1;HPM_P2
2021/07/02 00:01:50;;;;;;;4.25;3.17;;;;;;;17.12;63.01;98198.00;5103156;28;20467;-91
2021/07/02 00:04:15;;;;;;;3.25;2.67;;;;;;;17.15;63.41;98202.84;5104410;28;20095;-89
2021/07/02 00:06:40;;;;;;;3.75;2.88;;;;;;;17.20;63.25;98194.28;5104429;28;20023;-88
2021/07/02 00:09:06;;;;;;;4.68;3.30;;;;;;;17.19;63.10;98194.63;5101044;28;20036;-87
2021/07/02 00:11:31;;;;;;;3.72;2.63;;;;;;;17.13;63.29;98188.53;5104881;28;20031;-86
2021/07/02 00:13:57;;;;;;;4.55;3.22;;;;;;;17.14;63.46;98195.69;5105277;28;20023;-87
2021/07/02 00:16:22;;;;;;;3.90;2.90;;;;;;;17.14;63.19;98200.41;5102919;28;20114;-91
2021/07/02 00:18:48;;;;;;;3.50;2.72;;;;;;;17.10;63.67;98192.81;5104666;28;20096;-85
2021/07/02 00:21:13;;;;;;;3.60;2.90;;;;;;;17.07;63.53;98192.66;5085940;28;20038;-85
2021/07/02 00:23:38;;;;;;;3.80;2.60;;;;;;;17.06;63.70;98189.09;5102514;28;20024;-84
2021/07/02 00:26:04;;;;;;;4.13;3.20;;;;;;;17.06;64.01;98191.06;5104718;28;20019;-86
2021/07/02 00:28:29;;;;;;;3.53;3.00;;;;;;;17.05;63.92;98181.13;5102588;28;20409;-86
2021/07/02 00:30:55;;;;;;;3.58;3.10;;;;;;;17.05;64.32;98189.44;5104031;28;20026;-86
2021/07/02 00:33:20;;;;;;;3.80;3.10;;;;;;;17.06;65.04;98178.03;5102308;28;20121;-85
2021/07/02 00:35:45;;;;;;;6.10;3.28;;;;;;;17.03;65.00;98183.44;5103166;28;20687;-90
2021/07/02 00:38:11;;;;;;;4.38;3.00;;;;;;;17.04;64.64;98185.06;5102758;28;20028;-90
2021/07/02 00:40:36;;;;;;;3.85;2.97;;;;;;;16.94;65.52;98184.31;5101658;28;20037;-87
2021/07/02 00:43:03;;;;;;;4.30;3.30;;;;;;;16.88;65.08;98176.59;5102664;28;20023;-86
2021/07/02 00:45:28;;;;;;;4.28;3.00;;;;;;;16.85;64.95;98174.50;5086653;28;20028;-83
2021/07/02 00:47:54;;;;;;;3.97;3.20;;;;;;;16.77;65.55;98165.97;5084130;28;20030;-85
2021/07/02 00:50:19;;;;;;;4.75;3.10;;;;;;;16.73;65.64;98167.00;5104716;28;20456;-85
2021/07/02 00:52:45;;;;;;;4.10;2.97;;;;;;;16.69;65.05;98169.66;5102847;28;20699;-86
2021/07/02 00:55:11;;;;;;;3.65;3.00;;;;;;;16.66;65.58;98171.16;5084030;28;20111;-86
2021/07/02 00:57:37;;;;;;;3.40;3.10;;;;;;;16.64;65.09;98183.72;5101816;28;20020;-86
2021/07/02 01:00:06;;;;;;;4.03;3.45;;;;;;;16.63;65.51;98193.19;5106196;28;20430;-86
2021/07/02 01:02:31;;;;;;;4.50;3.42;;;;;;;16.63;65.87;98191.22;5085018;28;20395;-85
2021/07/02 01:04:56;;;;;;;3.33;2.83;;;;;;;16.65;65.93;98179.81;5105161;28;20035;-84
2021/07/02 01:07:22;;;;;;;4.43;3.00;;;;;;;16.65;65.27;98188.13;5102860;28;20035;-85
2021/07/02 01:09:47;;;;;;;4.10;2.90;;;;;;;16.62;65.22;98183.25;5083880;28;20031;-84
2021/07/02 01:12:13;;;;;;;4.85;3.42;;;;;;;16.61;65.52;98190.75;5102399;28;20023;-83
2021/07/02 01:14:39;;;;;;;5.68;3.78;;;;;;;16.59;65.91;98190.28;5102934;28;20028;-85
2021/07/02 01:17:05;;;;;;;3.60;2.85;;;;;;;16.56;65.65;98193.72;5102333;28;20799;-86
2021/07/02 01:19:30;;;;;;;4.22;3.45;;;;;;;16.51;66.93;98193.94;5104024;28;20023;-84
2021/07/02 01:21:55;;;;;;;4.40;2.95;;;;;;;16.48;65.94;98191.88;5106780;28;20024;-87
2021/07/02 01:24:22;;;;;;;3.47;3.17;;;;;;;16.44;66.33;98188.19;5103961;28;20042;-86
2021/07/02 01:26:50;;;;;;;4.05;3.22;;;;;;;16.47;66.02;98184.75;5102025;28;20019;-86
2021/07/02 01:29:16;;;;;;;6.13;3.30;;;;;;;16.48;66.31;98178.84;5109939;28;20035;-91
2021/07/02 01:31:41;;;;;;;5.95;3.35;;;;;;;16.49;66.40;98176.91;5101512;28;20023;-90
2021/07/02 01:34:07;;;;;;;5.50;3.50;;;;;;;16.47;67.11;98176.44;5103952;28;20422;-87
2021/07/02 01:36:32;;;;;;;6.15;5.13;;;;;;;16.42;66.95;98176.66;5102837;28;20474;-89
2021/07/02 01:38:58;;;;;;;6.78;3.67;;;;;;;16.38;66.99;98173.75;5101856;28;20023;-87
2021/07/02 01:41:23;;;;;;;7.78;4.13;;;;;;;16.36;66.67;98176.88;5102369;28;20140;-89
2021/07/02 01:43:49;;;;;;;5.50;4.00;;;;;;;16.36;66.61;98182.41;5102332;28;20044;-90
2021/07/02 01:46:15;;;;;;;6.47;3.70;;;;;;;16.37;67.24;98181.25;5102366;28;20460;-90
2021/07/02 01:48:41;;;;;;;6.65;4.18;;;;;;;16.37;67.56;98183.19;5105326;28;20035;-89
2021/07/02 01:51:07;;;;;;;6.45;4.50;;;;;;;16.34;68.39;98187.47;5104065;28;20040;-87
2021/07/02 01:53:32;;;;;;;6.57;4.03;;;;;;;16.35;67.78;98182.72;5102892;28;20031;-89
2021/07/02 01:55:58;;;;;;;5.10;3.95;;;;;;;16.35;67.26;98179.94;5101375;28;20034;-87
2021/07/02 01:58:23;;;;;;;6.13;4.32;;;;;;;16.40;67.96;98178.94;5086047;28;20027;-88
2021/07/02 02:00:49;;;;;;;6.80;4.43;;;;;;;16.36;67.47;98179.63;5103608;28;20123;-87
2021/07/02 02:03:14;;;;;;;4.57;3.63;;;;;;;16.32;67.88;98188.94;5100275;28;20071;-88
2021/07/02 02:05:39;;;;;;;5.68;4.00;;;;;;;16.28;67.59;98190.78;5102098;28;20106;-86
2021/07/02 02:08:05;;;;;;;6.93;4.18;;;;;;;16.23;67.85;98183.50;5086607;28;20098;-88
2021/07/02 02:10:31;;;;;;;5.63;4.20;;;;;;;16.23;67.82;98177.97;5104356;28;20032;-89
2021/07/02 02:12:56;;;;;;;6.25;4.43;;;;;;;16.21;69.03;98183.84;5105821;28;20456;-87
2021/07/02 02:15:22;;;;;;;7.82;4.38;;;;;;;16.20;68.14;98178.66;5101623;28;20035;-88
2021/07/02 02:17:47;;;;;;;6.45;4.75;;;;;;;16.18;68.33;98189.25;5103866;28;20076;-93
2021/07/02 02:20:13;;;;;;;6.05;4.43;;;;;;;16.19;68.12;98185.31;5106161;28;20395;-79
2021/07/02 02:22:39;;;;;;;6.28;4.57;;;;;;;16.13;68.02;98190.28;5106985;28;20063;-79
2021/07/02 02:25:06;;;;;;;7.00;4.32;;;;;;;16.09;68.63;98180.25;5108417;28;20077;-79
2021/07/02 02:27:32;;;;;;;6.57;4.50;;;;;;;16.10;68.70;98184.63;5088807;28;20384;-79
2021/07/02 02:29:57;;;;;;;7.05;5.00;;;;;;;16.09;69.05;98183.81;5104669;28;20582;-75
2021/07/02 02:32:22;;;;;;;6.40;4.32;;;;;;;16.07;68.74;98180.56;5105300;28;20036;-78
2021/07/02 02:34:48;;;;;;;7.00;4.85;;;;;;;16.02;69.04;98176.06;5108771;28;20032;-79
2021/07/02 02:37:13;;;;;;;5.20;3.85;;;;;;;16.03;69.19;98185.16;5106045;28;20491;-77
2021/07/02 02:39:39;;;;;;;7.65;4.88;;;;;;;15.99;69.04;98182.28;5104904;28;20028;-77
2021/07/02 02:42:05;;;;;;;7.28;4.60;;;;;;;15.94;68.92;98179.72;5088755;28;20039;-84
2021/07/02 02:44:31;;;;;;;9.15;4.63;;;;;;;15.93;68.98;98184.41;5089993;28;20074;-87
2021/07/02 02:46:56;;;;;;;10.10;5.13;;;;;;;15.95;70.01;98186.84;5105976;28;20107;-82
2021/07/02 02:49:21;;;;;;;11.13;5.32;;;;;;;16.00;70.12;98191.34;5104804;28;20383;-80
2021/07/02 02:51:47;;;;;;;5.90;4.55;;;;;;;16.02;69.91;98189.06;5102733;28;20040;-84
2021/07/02 02:54:12;;;;;;;8.55;5.55;;;;;;;16.06;69.69;98190.00;5085649;28;20024;-82
2021/07/02 02:57:03;;;;;;;8.23;5.07;;;;;;;16.07;70.56;98188.84;5101163;28;20088;-82
2021/07/02 02:59:23;;;;;;;7.82;5.13;;;;;;;16.07;70.72;98192.44;5103113;28;20396;-87
2021/07/02 03:01:48;;;;;;;7.80;5.55;;;;;;;16.04;70.41;98187.59;5105513;28;20034;-85
2021/07/02 03:04:13;;;;;;;9.88;5.47;;;;;;;16.06;70.28;98181.72;5103498;28;20032;-84
2021/07/02 03:06:39;;;;;;;7.70;5.32;;;;;;;16.12;70.35;98180.34;5107274;28;20031;-84
2021/07/02 03:09:04;;;;;;;6.05;4.32;;;;;;;16.14;69.66;98182.78;5107657;28;20055;-85
2021/07/02 03:11:30;;;;;;;10.55;4.57;;;;;;;16.15;70.61;98192.69;5105595;28;20028;-84
2021/07/02 03:13:55;;;;;;;8.32;4.78;;;;;;;16.12;69.43;98185.88;5104814;28;20024;-84
2021/07/02 03:16:20;;;;;;;8.48;5.20;;;;;;;16.14;70.32;98188.31;5105346;28;20103;-84
2021/07/02 03:18:46;;;;;;;9.02;5.68;;;;;;;16.15;69.71;98187.16;5107282;28;20015;-86
2021/07/02 03:21:11;;;;;;;8.90;5.50;;;;;;;16.20;69.92;98195.25;5106382;28;20050;-86
2021/07/02 03:23:36;;;;;;;9.93;6.13;;;;;;;16.22;70.07;98192.94;5107095;28;20031;-88
2021/07/02 03:26:02;;;;;;;11.60;6.05;;;;;;;16.23;69.95;98183.50;5106100;28;20022;-88
2021/07/02 03:28:27;;;;;;;9.07;5.93;;;;;;;16.27;69.69;98187.19;5104615;28;20023;-86
2021/07/02 03:30:53;;;;;;;8.93;5.78;;;;;;;16.28;69.85;98193.56;5104219;28;20088;-86
2021/07/02 03:33:18;;;;;;;7.95;5.05;;;;;;;16.32;69.44;98197.25;5103370;28;20031;-85
2021/07/02 03:35:43;;;;;;;9.70;5.65;;;;;;;16.37;69.38;98197.03;5106060;28;20032;-86
2021/07/02 03:38:09;;;;;;;8.90;5.60;;;;;;;16.37;69.21;98195.09;5105702;28;20035;-84
2021/07/02 03:40:34;;;;;;;8.95;5.53;;;;;;;16.41;69.09;98205.47;5105370;28;20026;-85
2021/07/02 03:42:59;;;;;;;6.38;5.35;;;;;;;16.46;69.61;98208.03;5104781;28;20023;-82
2021/07/02 03:45:25;;;;;;;7.15;5.82;;;;;;;16.48;69.05;98209.28;5106478;28;20135;-83
2021/07/02 03:47:50;;;;;;;7.40;5.15;;;;;;;16.49;69.10;98212.88;5105637;28;20023;-84
2021/07/02 03:50:15;;;;;;;6.97;5.18;;;;;;;16.52;68.87;98206.63;5105389;28;20047;-84
2021/07/02 03:52:41;;;;;;;8.13;5.93;;;;;;;16.56;69.55;98213.09;5104097;28;20019;-86
2021/07/02 03:55:07;;;;;;;8.93;6.30;;;;;;;16.59;69.60;98215.19;5103880;28;20069;-87
2021/07/02 03:57:32;;;;;;;10.15;6.10;;;;;;;16.64;69.19;98223.28;5102841;28;20383;-84
2021/07/02 03:59:58;;;;;;;8.13;5.95;;;;;;;16.66;68.93;98228.50;5103155;28;20020;-85
2021/07/02 04:02:23;;;;;;;8.18;5.75;;;;;;;16.69;68.97;98229.75;5087234;28;20357;-85
2021/07/02 04:04:48;;;;;;;8.75;6.22;;;;;;;16.73;69.14;98230.69;5103963;28;20031;-84
2021/07/02 04:07:14;;;;;;;10.05;6.28;;;;;;;16.78;68.63;98230.47;5104507;28;20479;-84
2021/07/02 04:09:40;;;;;;;7.50;6.05;;;;;;;16.85;68.46;98232.66;5104002;28;20044;-84
2021/07/02 04:12:06;;;;;;;9.38;6.60;;;;;;;16.89;68.62;98228.06;5088296;28;20031;-87
2021/07/02 04:14:32;;;;;;;9.73;5.93;;;;;;;16.90;69.24;98238.81;5114795;28;20395;-87
2021/07/02 04:16:58;;;;;;;9.60;6.35;;;;;;;16.89;68.21;98231.66;5114726;28;20032;-83
2021/07/02 04:19:24;;;;;;;9.50;6.68;;;;;;;16.86;68.60;98228.75;5114332;28;20031;-82
2021/07/02 04:21:50;;;;;;;7.32;6.03;;;;;;;16.88;68.66;98230.03;5114362;28;20035;-87
2021/07/02 04:24:16;;;;;;;8.18;5.97;;;;;;;16.91;69.09;98223.78;5114224;28;20534;-86
2021/07/02 04:26:42;;;;;;;9.90;6.60;;;;;;;16.92;68.86;98235.69;5114315;28;20036;-82
2021/07/02 04:29:08;;;;;;;8.52;6.15;;;;;;;16.94;68.91;98227.84;5114301;28;20095;-86
2021/07/02 04:31:34;;;;;;;8.52;6.20;;;;;;;16.96;68.37;98234.69;5114151;28;20070;-84
2021/07/02 04:33:59;;;;;;;9.15;6.03;;;;;;;16.97;68.71;98243.81;5084895;28;20086;-84
2021/07/02 04:36:24;;;;;;;11.02;7.07;;;;;;;16.96;68.64;98231.91;5094018;28;20100;-82
2021/07/02 04:38:50;;;;;;;9.95;6.50;;;;;;;17.01;68.21;98236.44;5094145;28;20042;-82
2021/07/02 04:41:15;;;;;;;9.60;6.78;;;;;;;17.10;68.56;98239.91;5101872;28;20032;-82
2021/07/02 04:43:41;;;;;;;10.10;6.65;;;;;;;17.15;68.37;98240.81;5112405;28;20380;-81
2021/07/02 04:46:06;;;;;;;9.68;6.40;;;;;;;17.21;68.45;98243.03;5113977;28;20139;-82
2021/07/02 04:48:31;;;;;;;8.75;6.03;;;;;;;17.28;68.50;98247.19;5095542;28;20106;-82
2021/07/02 04:50:57;;;;;;;8.93;6.22;;;;;;;17.33;68.12;98247.75;5113978;28;20356;-84
2021/07/02 04:53:22;;;;;;;9.23;6.32;;;;;;;17.37;68.27;98247.84;5113418;28;20535;-85
2021/07/02 04:55:48;;;;;;;10.20;6.72;;;;;;;17.38;67.69;98246.69;5114002;28;20423;-83
2021/07/02 04:58:14;;;;;;;10.05;5.90;;;;;;;17.42;68.00;98244.84;5113823;28;20550;-84
2021/07/02 05:00:39;;;;;;;8.63;6.65;;;;;;;17.47;67.67;98249.38;5111575;28;20023;-81
2021/07/02 05:03:05;;;;;;;9.07;6.65;;;;;;;17.47;67.97;98249.38;5100031;28;20032;-83
2021/07/02 05:05:31;;;;;;;7.40;5.97;;;;;;;17.49;67.81;98242.31;5113632;28;20138;-82
2021/07/02 05:07:57;;;;;;;7.25;5.40;;;;;;;17.52;67.57;98246.38;5113544;28;20058;-80
2021/07/02 05:10:22;;;;;;;9.70;6.53;;;;;;;17.51;67.69;98247.53;5111060;28;20530;-82
2021/07/02 05:12:48;;;;;;;9.05;6.03;;;;;;;17.51;67.49;98247.53;5105492;28;20055;-83
2021/07/02 05:15:13;;;;;;;9.88;6.32;;;;;;;17.54;67.38;98253.19;5113225;28;20049;-83
2021/07/02 05:17:40;;;;;;;10.57;6.53;;;;;;;17.59;67.68;98251.31;5113838;28;20026;-83
2021/07/02 05:20:06;;;;;;;8.73;6.10;;;;;;;17.61;67.29;98247.03;5111594;28;20493;-81
2021/07/02 05:22:31;;;;;;;8.45;5.80;;;;;;;17.66;67.46;98252.34;5113478;28;20487;-80
2021/07/02 05:24:57;;;;;;;7.93;5.97;;;;;;;17.68;67.27;98246.47;5093596;28;20089;-82
2021/07/02 05:27:22;;;;;;;8.57;6.10;;;;;;;17.67;67.17;98242.06;5093128;28;20022;-82
2021/07/02 05:29:47;;;;;;;9.70;6.82;;;;;;;17.73;67.64;98250.94;5103425;28;20041;-82
2021/07/02 05:32:13;;;;;;;7.40;5.40;;;;;;;17.74;66.98;98252.56;5112823;28;20119;-82
2021/07/02 05:34:38;;;;;;;7.82;6.18;;;;;;;17.77;67.15;98258.22;5113099;28;20035;-83
2021/07/02 05:37:04;;;;;;;8.45;6.00;;;;;;;17.82;67.05;98260.75;5095163;28;20020;-82
2021/07/02 05:39:30;;;;;;;8.65;5.82;;;;;;;17.84;66.86;98257.66;5104146;28;20016;-83
2021/07/02 05:41:55;;;;;;;10.45;6.50;;;;;;;17.91;66.72;98265.38;5113288;28;20024;-82
2021/07/02 05:44:21;;;;;;;8.98;5.85;;;;;;;17.93;66.89;98268.59;5113058;28;20126;-83
2021/07/02 05:46:46;;;;;;;8.93;6.05;;;;;;;17.90;66.40;98270.13;5111826;28;20076;-82
2021/07/02 05:49:13;;;;;;;8.40;5.85;;;;;;;17.83;66.33;98267.91;5105663;28;20106;-80
2021/07/02 05:51:38;;;;;;;7.55;5.50;;;;;;;17.81;66.26;98261.91;5113095;28;20027;-83
2021/07/02 05:54:04;;;;;;;7.63;4.93;;;;;;;17.84;66.21;98266.75;5111532;28;20495;-81
2021/07/02 05:56:30;;;;;;;8.45;5.88;;;;;;;17.92;66.37;98269.75;5107252;28;20065;-83
2021/07/02 05:58:58;;;;;;;8.50;5.90;;;;;;;18.03;66.31;98264.56;5112799;28;20459;-83
2021/07/02 06:01:24;;;;;;;7.22;5.72;;;;;;;18.14;66.14;98271.25;5113011;28;20701;-81
2021/07/02 06:03:49;;;;;;;6.85;5.53;;;;;;;18.21;66.05;98265.91;5103685;28;20066;-83
2021/07/02 06:06:15;;;;;;;9.43;5.88;;;;;;;18.30;65.96;98268.53;5112684;28;20243;-83
2021/07/02 06:08:40;;;;;;;7.35;5.90;;;;;;;18.39;65.84;98265.59;5109746;28;20031;-83
2021/07/02 06:11:06;;;;;;;7.53;6.03;;;;;;;18.48;65.61;98266.25;5079051;28;20172;-78
2021/07/02 06:13:31;;;;;;;7.25;5.85;;;;;;;18.56;65.49;98270.03;5110783;28;20107;-78
2021/07/02 06:15:57;;;;;;;9.05;6.07;;;;;;;18.62;65.19;98270.59;5088147;28;20110;-76
2021/07/02 06:18:22;;;;;;;10.00;6.40;;;;;;;18.68;65.09;98277.50;5110779;28;20478;-76
2021/07/02 06:20:51;;;;;;;8.23;6.20;;;;;;;18.66;64.83;98260.41;5112680;28;20023;-77
2021/07/02 06:23:18;;;;;;;6.82;5.60;;;;;;;18.66;64.84;98261.19;5109458;28;20118;-77
2021/07/02 06:25:44;;;;;;;9.18;6.22;;;;;;;18.66;64.99;98261.19;5111366;28;20110;-79
2021/07/02 06:28:09;;;;;;;10.73;6.15;;;;;;;18.66;64.88;98257.63;5111544;28;20103;-77
2021/07/02 06:30:35;;;;;;;6.65;5.43;;;;;;;18.66;64.66;98261.19;5110991;28;20023;-79
2021/07/02 06:33:00;;;;;;;9.07;5.70;;;;;;;18.66;64.74;98269.53;5095988;28;20061;-78
2021/07/02 06:35:25;;;;;;;7.72;5.43;;;;;;;18.68;64.46;98269.19;5111146;28;20023;-79
2021/07/02 06:37:50;;;;;;;7.35;5.00;;;;;;;18.67;64.51;98265.59;5106746;28;20430;-77
2021/07/02 06:40:18;;;;;;;6.88;5.00;;;;;;;18.71;64.51;98277.59;5100922;28;20040;-76
2021/07/02 06:42:44;;;;;;;7.68;5.00;;;;;;;18.84;64.58;98270.00;5085652;28;20042;-73
2021/07/02 06:45:11;;;;;;;7.38;4.88;;;;;;;18.94;64.21;98270.66;5101305;28;20024;-75
2021/07/02 06:47:49;;;;;;;6.20;4.20;;;;;;;19.03;63.38;98266.56;5108079;28;20027;-77
2021/07/02 06:50:14;;;;;;;7.43;5.13;;;;;;;19.21;64.01;98271.78;5092618;28;20035;-78
2021/07/02 06:52:40;;;;;;;7.68;5.07;;;;;;;19.39;63.63;98260.25;5103163;28;20028;-78
2021/07/02 06:55:05;;;;;;;7.72;5.18;;;;;;;19.55;62.22;98269.41;5090610;28;20022;-75
2021/07/02 06:57:31;;;;;;;6.68;4.55;;;;;;;19.60;62.70;98265.53;5090401;28;20020;-75
2021/07/02 07:00:02;;;;;;;7.75;5.50;;;;;;;19.64;62.28;98283.13;5090609;28;20027;-77
2021/07/02 07:02:27;;;;;;;9.50;5.05;;;;;;;19.66;61.61;98274.44;5090315;28;20020;-75
2021/07/02 07:04:53;;;;;;;6.30;4.55;;;;;;;19.71;61.56;98277.72;5072395;28;20476;-82
2021/07/02 07:07:18;;;;;;;4.85;4.20;;;;;;;19.73;60.88;98278.16;5093050;28;20024;-76
2021/07/02 07:09:43;;;;;;;4.75;3.85;;;;;;;19.74;60.71;98273.44;5093698;28;20083;-80
2021/07/02 07:12:08;;;;;;;6.85;4.18;;;;;;;19.84;59.45;98280.41;5094104;28;20032;-75
2021/07/02 07:14:34;;;;;;;5.63;4.28;;;;;;;;;;5087953;28;20024;-78
2021/07/02 07:17:03;;;;;;;7.30;4.28;;;;;;;19.75;59.12;98275.84;5096432;28;20031;-77
2021/07/02 07:19:29;;;;;;;4.93;4.43;;;;;;;19.70;59.51;98276.13;5114156;28;20028;-79
2021/07/02 07:21:56;;;;;;;5.35;4.55;;;;;;;19.73;58.85;98280.94;5094429;28;20024;-76
2021/07/02 07:24:21;;;;;;;7.35;3.83;;;;;;;19.68;58.69;98278.44;5076176;28;20153;-79
2021/07/02 07:26:47;;;;;;;4.90;3.80;;;;;;;19.70;59.07;98276.13;5094628;28;20044;-78
2021/07/02 07:29:12;;;;;;;5.00;4.32;;;;;;;19.79;59.29;98268.38;5094457;28;20028;-76
2021/07/02 07:31:38;;;;;;;6.00;3.90;;;;;;;19.85;58.69;98274.47;5076384;28;20031;-75
2021/07/02 07:34:03;;;;;;;8.90;3.38;;;;;;;19.86;59.14;98278.06;5094063;28;20028;-78
2021/07/02 07:36:30;;;;;;;5.50;3.17;;;;;;;19.80;58.49;98274.75;5094592;28;20036;-78
2021/07/02 07:38:55;;;;;;;4.38;3.45;;;;;;;19.76;58.41;98271.88;5094092;28;20118;-77
2021/07/02 07:41:23;;;;;;;7.15;3.78;;;;;;;19.78;57.66;98272.34;5094193;28;20051;-77
2021/07/02 07:43:48;;;;;;;4.38;2.97;;;;;;;19.73;58.35;98260.69;5094119;28;20027;-78
2021/07/02 07:46:14;;;;;;;5.28;3.25;;;;;;;19.73;58.07;98269.81;5094019;28;20028;-76
2021/07/02 07:48:39;;;;;;;4.90;3.28;;;;;;;19.75;57.47;98266.69;5094104;28;20028;-80
2021/07/02 07:53:48;;;;;;;6.47;3.58;;;;;;;19.85;58.02;98277.25;5094141;28;20051;-78
2021/07/02 07:56:14;;;;;;;6.70;3.50;;;;;;;19.96;57.90;98276.72;5081131;28;20023;-79
2021/07/02 07:58:39;;;;;;;4.95;3.10;;;;;;;20.08;57.89;98279.38;5114428;28;20023;-77
2021/07/02 08:01:05;;;;;;;3.67;2.97;;;;;;;20.17;57.28;98271.63;5114027;28;20678;-77
2021/07/02 08:03:30;;;;;;;2.90;2.63;;;;;;;20.29;57.71;98281.00;5114017;28;20047;-80
2021/07/02 08:05:55;;;;;;;2.78;2.38;;;;;;;20.46;57.15;98291.72;5113455;28;20089;-78
2021/07/02 08:08:20;;;;;;;3.65;3.15;;;;;;;20.51;55.95;98280.28;5090123;28;20027;-80
2021/07/02 08:10:46;;;;;;;5.72;3.03;;;;;;;20.53;56.32;98283.50;5095970;28;20087;-79
2021/07/02 08:13:11;;;;;;;3.47;2.85;;;;;;;20.59;56.75;98284.00;5103086;28;20059;-79
2021/07/02 08:15:37;;;;;;;4.10;3.13;;;;;;;20.59;55.87;98283.19;5097952;28;20059;-79
2021/07/02 08:18:02;;;;;;;6.55;3.90;;;;;;;20.58;56.18;98278.81;5104081;28;20036;-80
2021/07/02 08:20:27;;;;;;;3.75;2.80;;;;;;;20.60;56.23;98279.22;5094806;28;20028;-80
2021/07/02 08:22:53;;;;;;;4.80;3.28;;;;;;;20.59;55.70;98288.75;5111396;28;20110;-78
2021/07/02 08:25:18;;;;;;;3.88;3.47;;;;;;;20.64;56.27;98286.50;5112089;28;20055;-79
2021/07/02 08:30:28;;;;;;;5.85;3.53;;;;;;;20.68;56.13;98278.19;5111431;28;20055;-81
2021/07/02 08:32:53;;;;;;;3.85;3.13;;;;;;;20.72;56.03;98284.63;5106268;28;20472;-81
2021/07/02 08:35:21;;;;;;;6.18;4.00;;;;;;;20.78;55.83;98271.25;5111809;28;20083;-76
2021/07/02 08:37:52;;;;;;;6.07;3.75;;;;;;;20.97;55.90;98276.78;5112000;28;20475;-81
2021/07/02 08:40:19;;;;;;;4.05;3.17;;;;;;;21.12;55.22;98275.03;5111934;28;20131;-78
2021/07/02 08:42:45;;;;;;;4.03;3.53;;;;;;;21.19;55.40;98274.38;5111523;28;20418;-79
2021/07/02 08:45:11;;;;;;;3.63;3.30;;;;;;;21.21;55.13;98279.56;5093384;28;20114;-77
2021/07/02 08:47:36;;;;;;;4.32;3.42;;;;;;;21.26;54.82;98280.06;5111942;28;20131;-78
2021/07/02 08:50:03;;;;;;;3.47;3.17;;;;;;;21.31;54.79;98281.75;5111456;28;20022;-78
2021/07/02 08:52:28;;;;;;;7.30;3.25;;;;;;;21.31;53.79;98283.72;5093415;28;20376;-81
2021/07/02 08:54:54;;;;;;;4.57;3.00;;;;;;;21.34;53.48;98275.41;5096691;28;20028;-78
2021/07/02 08:57:19;;;;;;;3.30;2.97;;;;;;;21.26;53.87;98277.25;5092174;28;20030;-78
2021/07/02 08:59:44;;;;;;;4.40;3.53;;;;;;;21.25;53.69;98275.66;5092886;28;20419;-77
2021/07/02 09:02:27;;;;;;;4.68;3.00;;;;;;;21.35;53.52;98271.44;5101291;28;20028;-78
2021/07/02 09:04:52;;;;;;;6.57;3.50;;;;;;;21.37;53.52;98263.50;5092085;28;20480;-79
2021/07/02 09:07:19;;;;;;;4.05;3.60;;;;;;;21.44;54.50;98270.38;5075415;28;20039;-79
2021/07/02 09:09:56;;;;;;;5.65;4.80;;;;;;;21.43;53.75;98275.16;5092232;28;20060;-77
2021/07/02 09:12:27;;;;;;;5.40;4.68;;;;;;;21.31;53.34;98275.34;5090881;28;20484;-77
2021/07/02 09:15:10;;;;;;;5.78;5.25;;;;;;;21.26;52.47;98271.69;5090432;28;20028;-75
2021/07/02 09:17:51;;;;;;;6.57;5.20;;;;;;;21.14;52.80;98279.44;5091097;28;20126;-79
2021/07/02 09:20:19;;;;;;;5.53;4.72;;;;;;;21.01;52.69;98276.03;5073251;28;20052;-79
2021/07/02 09:22:47;;;;;;;6.50;5.03;;;;;;;21.03;53.25;98282.03;5094645;28;20246;-80
2021/07/02 09:25:46;;;;;;;6.32;4.90;;;;;;;21.13;53.44;98284.22;5111194;28;20028;-81
2021/07/02 09:28:15;;;;;;;6.07;5.05;;;;;;;21.23;53.44;98280.78;5095197;28;20036;-78
2021/07/02 09:30:43;;;;;;;6.63;6.03;;;;;;;21.36;53.12;98278.66;5090099;28;20048;-80
2021/07/02 09:33:13;;;;;;;6.88;5.38;;;;;;;21.56;53.35;98271.00;5090786;28;20071;-78
2021/07/02 09:35:45;;;;;;;6.38;5.60;;;;;;;21.84;53.32;98266.22;5092256;28;20035;-78
2021/07/02 09:38:11;;;;;;;6.75;5.63;;;;;;;21.99;52.78;98268.03;5102983;28;20465;-78
2021/07/02 09:40:38;;;;;;;6.43;5.82;;;;;;;22.09;53.55;98272.16;5086992;28;20377;-76
2021/07/02 09:43:15;;;;;;;5.78;5.18;;;;;;;22.16;53.41;98277.84;5091702;28;20023;-75
2021/07/02 09:45:54;;;;;;;5.35;4.05;;;;;;;22.15;53.08;98275.44;5110706;28;20019;-76
2021/07/02 09:48:21;;;;;;;;;;;;;;;22.01;52.21;98284.41;5103885;28;20028;-76
2021/07/02 09:50:54;;;;;;;5.00;3.47;;;;;;;21.81;51.84;98280.94;5108722;28;20284;-78
2021/07/02 09:53:25;;;;;;;3.78;3.42;;;;;;;21.69;52.28;98274.41;5089167;28;20489;-78
2021/07/02 09:55:53;;;;;;;4.20;3.35;;;;;;;21.65;52.41;98278.31;5089768;28;20542;-77
2021/07/02 09:58:36;;;;;;;4.97;4.05;;;;;;;21.64;52.47;98282.28;5088607;28;20487;-75
2021/07/02 10:01:01;;;;;;;4.50;3.78;;;;;;;21.68;52.51;98281.16;5088643;28;20365;-76
2021/07/02 10:03:29;;;;;;;5.10;4.38;;;;;;;21.68;52.13;98285.94;5090649;28;20035;-79
2021/07/02 10:06:01;;;;;;;5.18;4.05;;;;;;;21.61;52.15;98282.97;5108799;28;20041;-75
2021/07/02 10:08:32;;;;;;;5.80;3.92;;;;;;;21.64;52.59;98276.69;5086536;28;20031;-79
2021/07/02 10:10:59;;;;;;;5.80;3.90;;;;;;;21.69;52.56;98274.41;5096439;28;20032;-80
2021/07/02 10:13:30;;;;;;;4.57;3.88;;;;;;;21.69;52.21;98268.81;5102067;28;20043;-78
2021/07/02 10:15:57;;;;;;;6.55;4.03;;;;;;;21.79;52.54;98277.75;5089572;28;20024;-77
2021/07/02 10:18:24;;;;;;;4.68;3.88;;;;;;;21.87;52.76;98276.63;5089648;28;20031;-79
2021/07/02 10:20:51;;;;;;;6.78;4.20;;;;;;;21.99;52.91;98272.84;5097973;28;20103;-79
2021/07/02 10:23:36;;;;;;;6.63;4.47;;;;;;;22.13;52.32;98275.00;5094758;28;20066;-78
2021/07/02 10:26:05;;;;;;;7.43;4.07;;;;;;;22.14;52.09;98271.81;5107883;28;20499;-78
2021/07/02 10:28:31;;;;;;;3.20;2.90;;;;;;;22.21;52.30;98271.09;5091779;28;20024;-78
2021/07/02 10:30:57;;;;;;;5.57;3.30;;;;;;;22.36;51.13;98274.09;5105140;28;20273;-78
2021/07/02 10:33:28;;;;;;;2.55;2.35;;;;;;;22.56;51.55;98270.00;5110193;28;20547;-78
2021/07/02 10:35:59;;;;;;;4.97;2.40;;;;;;;22.67;50.22;98269.28;5102810;28;20028;-78
2021/07/02 10:38:53;;;;;;;5.20;3.20;;;;;;;22.65;49.74;98271.66;5090724;28;20024;-83
2021/07/02 10:41:19;;;;;;;4.13;3.00;;;;;;;22.65;50.11;98266.88;5111188;28;20188;-84
2021/07/02 10:44:07;;;;;;;6.22;3.33;;;;;;;22.63;49.82;98266.47;5097768;28;20511;-82
2021/07/02 10:46:41;;;;;;;4.10;2.77;;;;;;;22.60;50.18;98273.63;5093926;28;20017;-78
2021/07/02 10:49:07;;;;;;;5.13;2.70;;;;;;;22.52;50.39;98276.69;5075204;28;20055;-79
2021/07/02 10:51:34;;;;;;;3.33;2.47;;;;;;;22.48;50.45;98273.88;5094228;28;20058;-80
2021/07/02 10:54:09;;;;;;;5.55;2.90;;;;;;;22.41;50.23;98273.75;5094490;28;20107;-80
2021/07/02 10:56:37;;;;;;;3.22;2.42;;;;;;;22.30;50.35;98271.63;5075801;28;20020;-83
2021/07/02 10:59:03;;;;;;;4.78;2.67;;;;;;;22.34;50.69;98279.25;5107290;28;20023;-79
2021/07/02 11:01:32;;;;;;;3.42;3.13;;;;;;;22.30;49.75;98273.63;5114224;28;20016;-80
2021/07/02 11:04:34;;;;;;;3.10;2.80;;;;;;;22.25;48.92;98276.75;5102508;28;20031;-81
2021/07/02 11:07:12;;;;;;;3.13;2.50;;;;;;;22.24;49.50;98281.53;5094793;28;20801;-81
2021/07/02 11:12:28;;;;;;;4.32;2.70;;;;;;;22.41;49.09;98282.13;5114223;28;20077;-82
2021/07/02 11:15:06;;;;;;;2.30;2.10;;;;;;;22.53;49.54;98278.31;5114696;28;20107;-83
2021/07/02 11:17:32;;;;;;;3.03;2.47;;;;;;;22.72;49.56;98282.91;5096341;28;20110;-81
2021/07/02 11:20:10;;;;;;;3.88;2.50;;;;;;;22.83;48.18;98269.88;5111073;28;20106;-82
2021/07/02 11:22:36;;;;;;;5.93;3.20;;;;;;;22.99;48.50;98266.84;5095779;28;20490;-82
2021/07/02 11:25:15;;;;;;;4.38;2.80;;;;;;;23.26;49.10;98269.50;5106157;28;20468;-81
2021/07/02 11:27:56;;;;;;;3.10;2.33;;;;;;;23.60;49.05;98257.38;5095654;28;20024;-85
2021/07/02 11:32:49;;;;;;;14.13;4.50;;;;;;;24.21;48.15;98251.34;5113284;28;20038;-80
2021/07/02 11:35:20;;;;;;;3.13;2.80;;;;;;;24.46;47.27;98257.03;5114134;28;20023;-82
2021/07/02 11:38:10;;;;;;;3.95;2.40;;;;;;;24.58;44.94;98246.66;5114231;28;20051;-84
2021/07/02 11:41:04;;;;;;;3.40;2.95;;;;;;;24.43;44.65;98255.06;5113648;28;20035;-81
2021/07/02 11:43:37;;;;;;;4.43;2.90;;;;;;;24.15;45.39;98252.94;5084762;28;20044;-78
2021/07/02 11:46:09;;;;;;;6.43;3.45;;;;;;;23.87;45.69;98254.31;5090757;28;20032;-79